Time;durP1;ratioP1;P1;durP2;ratioP2;P2;SDS_P1;SDS_P2;PMS_P1;PMS_P2;Temp;Humidity;BMP_temperature;BMP_pressure;BME280_temperature;BME280_humidity;BME280_pressure;Samples;Min_cycle;Max_cycle;Signal;HPM_P1;HPM_P2
2023/10/31 00:02:09;;;;;;;2.42;1.58;;;10.80;99.90;;;;;;5132196;27;20409;-63
2023/10/31 00:04:35;;;;;;;2.20;1.45;;;10.80;99.90;;;;;;5113900;27;20065;-63
2023/10/31 00:07:01;;;;;;;1.95;1.30;;;10.80;99.90;;;;;;5113327;27;20043;-63
2023/10/31 00:09:28;;;;;;;2.20;1.40;;;10.70;99.90;;;;;;5111317;27;20050;-63
2023/10/31 00:11:54;;;;;;;2.50;1.15;;;10.70;99.90;;;;;;5093278;28;20063;-63
2023/10/31 00:14:20;;;;;;;2.65;1.52;;;10.90;99.90;;;;;;5093337;28;20374;-63
2023/10/31 00:16:48;;;;;;;2.80;1.42;;;10.90;99.90;;;;;;5110385;28;20645;-63
2023/10/31 00:19:14;;;;;;;2.40;1.50;;;10.70;99.90;;;;;;5092702;27;20043;-63
2023/10/31 00:21:41;;;;;;;4.55;1.70;;;10.80;99.90;;;;;;5113204;27;20179;-62
2023/10/31 00:24:07;;;;;;;4.65;1.58;;;10.80;99.90;;;;;;5113044;27;20051;-63
2023/10/31 00:26:33;;;;;;;5.50;1.65;;;10.50;99.90;;;;;;5112829;27;20054;-63
2023/10/31 00:29:00;;;;;;;3.28;1.58;;;10.70;99.90;;;;;;5096558;27;20061;-63
2023/10/31 00:31:26;;;;;;;2.85;1.58;;;10.40;99.90;;;;;;5112520;27;20051;-63
2023/10/31 00:33:52;;;;;;;4.35;1.40;;;10.40;99.90;;;;;;5092862;28;20084;-64
2023/10/31 00:36:18;;;;;;;4.28;2.00;;;10.30;99.90;;;;;;5110288;28;20054;-63
2023/10/31 00:38:45;;;;;;;4.50;1.80;;;10.50;99.90;;;;;;5093028;28;20059;-63
2023/10/31 00:41:11;;;;;;;4.05;1.63;;;10.30;99.90;;;;;;5108571;27;20051;-63
2023/10/31 00:43:37;;;;;;;4.68;1.80;;;10.20;99.90;;;;;;5112902;27;20047;-62
2023/10/31 00:46:04;;;;;;;3.67;1.10;;;10.40;99.90;;;;;;5112302;27;20054;-63
2023/10/31 00:48:36;;;;;;;2.60;1.20;;;10.10;99.90;;;;;;5112892;27;20451;-64
2023/10/31 00:51:04;;;;;;;2.20;1.35;;;10.30;99.90;;;;;;5097549;28;20483;-63
2023/10/31 00:53:31;;;;;;;2.85;1.23;;;10.30;99.90;;;;;;5092201;28;20047;-63
2023/10/31 00:55:58;;;;;;;3.25;1.33;;;10.30;99.90;;;;;;5092044;28;20046;-62
2023/10/31 00:58:24;;;;;;;2.13;1.25;;;10.10;99.90;;;;;;5092356;28;20055;-62
2023/10/31 01:00:50;;;;;;;4.13;1.70;;;10.30;99.90;;;;;;5105210;27;20087;-63
2023/10/31 01:03:16;;;;;;;5.45;2.45;;;10.30;99.90;;;;;;5112348;27;20043;-63
2023/10/31 01:05:42;;;;;;;2.72;1.52;;;10.20;99.90;;;;;;5112233;27;20078;-63
2023/10/31 01:08:09;;;;;;;2.80;1.40;;;10.20;99.90;;;;;;5112468;28;20043;-63
2023/10/31 01:10:35;;;;;;;5.43;1.65;;;10.20;99.90;;;;;;5107661;27;20047;-62
2023/10/31 01:13:01;;;;;;;2.88;1.50;;;10.00;99.90;;;;;;5112611;28;20043;-63
2023/10/31 01:15:27;;;;;;;6.55;1.90;;;10.20;99.90;;;;;;5112071;28;20051;-62
2023/10/31 01:17:54;;;;;;;3.47;1.70;;;10.20;99.90;;;;;;5112243;28;20050;-63
2023/10/31 01:20:20;;;;;;;4.68;1.13;;;10.20;99.90;;;;;;5121732;28;20444;-63
2023/10/31 01:22:46;;;;;;;4.60;1.42;;;9.90;99.90;;;;;;5075199;28;20051;-62
2023/10/31 01:25:13;;;;;;;4.72;1.70;;;10.20;99.90;;;;;;5091858;28;20487;-63
2023/10/31 01:27:39;;;;;;;4.57;1.30;;;10.00;99.90;;;;;;5109838;28;20084;-62
2023/10/31 01:30:06;;;;;;;4.35;1.40;;;9.90;99.90;;;;;;5098485;28;20530;-63
2023/10/31 01:32:32;;;;;;;4.60;1.10;;;10.10;99.90;;;;;;5112248;28;20580;-62
2023/10/31 01:34:58;;;;;;;5.32;1.70;;;10.10;99.90;;;;;;5112449;27;20051;-63
2023/10/31 01:37:24;;;;;;;7.20;1.33;;;10.10;99.90;;;;;;5116231;27;20055;-63
2023/10/31 01:39:51;;;;;;;4.93;1.92;;;9.80;99.90;;;;;;5111901;28;20497;-63
2023/10/31 01:42:17;;;;;;;3.70;1.20;;;10.10;99.90;;;;;;5095982;28;20055;-63
2023/10/31 01:44:43;;;;;;;4.97;1.63;;;10.10;99.90;;;;;;5095458;28;20066;-62
2023/10/31 01:47:09;;;;;;;4.75;1.60;;;9.90;99.90;;;;;;5096080;28;20048;-62
2023/10/31 01:49:36;;;;;;;3.60;1.30;;;10.10;99.90;;;;;;5093612;28;20052;-63
2023/10/31 01:52:06;;;;;;;4.75;1.45;;;9.90;99.90;;;;;;5075342;28;20040;-63
2023/10/31 01:54:33;;;;;;;5.82;1.70;;;10.00;99.90;;;;;;5093826;28;20063;-62
2023/10/31 01:57:01;;;;;;;5.85;1.90;;;10.10;99.90;;;;;;5074869;28;20043;-63
2023/10/31 01:59:28;;;;;;;3.45;2.08;;;10.00;99.90;;;;;;5094236;28;20052;-63
2023/10/31 02:01:57;;;;;;;3.50;1.73;;;10.10;99.90;;;;;;5095590;28;20063;-63
2023/10/31 02:04:24;;;;;;;4.45;1.98;;;10.00;99.90;;;;;;5095653;28;20047;-63
2023/10/31 02:06:50;;;;;;;3.20;1.83;;;9.80;99.90;;;;;;5094851;28;20486;-63
2023/10/31 02:09:16;;;;;;;7.15;2.17;;;10.00;99.90;;;;;;5095485;28;20055;-63
2023/10/31 02:11:43;;;;;;;5.63;2.13;;;9.80;99.90;;;;;;5068541;28;20044;-62
2023/10/31 02:14:09;;;;;;;6.03;2.03;;;10.20;99.90;;;;;;5075209;28;20342;-63
2023/10/31 02:16:35;;;;;;;4.50;2.40;;;9.90;99.90;;;;;;5074610;28;20409;-63
2023/10/31 02:19:03;;;;;;;3.38;2.03;;;10.20;99.90;;;;;;5075253;28;20055;-63
2023/10/31 02:21:31;;;;;;;5.40;2.70;;;10.10;99.90;;;;;;5092581;28;20051;-63
2023/10/31 02:23:59;;;;;;;5.18;2.50;;;10.20;99.90;;;;;;5095337;28;20116;-63
2023/10/31 02:26:33;;;;;;;5.18;2.60;;;10.20;99.90;;;;;;5094733;28;20051;-63
2023/10/31 02:29:00;;;;;;;5.47;2.22;;;10.00;99.90;;;;;;5095593;28;20425;-63
2023/10/31 02:31:26;;;;;;;9.80;3.17;;;10.30;99.90;;;;;;5077593;28;20524;-63
2023/10/31 02:33:53;;;;;;;5.20;2.17;;;10.10;99.90;;;;;;5075158;28;20051;-63
2023/10/31 02:36:19;;;;;;;6.13;2.72;;;10.40;99.90;;;;;;5074031;28;20048;-63
2023/10/31 02:38:46;;;;;;;9.63;2.97;;;10.10;99.90;;;;;;5074752;28;20044;-63
2023/10/31 02:41:13;;;;;;;10.25;2.97;;;10.20;99.90;;;;;;5072689;28;20066;-63
2023/10/31 02:43:40;;;;;;;10.30;2.67;;;10.30;99.90;;;;;;5113016;28;20430;-63
2023/10/31 02:46:06;;;;;;;16.52;4.30;;;10.10;99.90;;;;;;5093790;28;20051;-63
2023/10/31 02:48:38;;;;;;;7.07;2.95;;;10.40;99.90;;;;;;5094795;28;20039;-63
2023/10/31 02:51:05;;;;;;;6.35;3.15;;;10.30;99.90;;;;;;5082979;28;20044;-63
2023/10/31 02:53:31;;;;;;;11.35;3.22;;;10.50;99.90;;;;;;5094654;28;20050;-63
2023/10/31 02:55:57;;;;;;;10.98;3.53;;;10.50;99.90;;;;;;5094129;28;20047;-63
2023/10/31 02:58:24;;;;;;;9.45;2.97;;;10.30;99.90;;;;;;5094423;28;20051;-62
2023/10/31 03:00:50;;;;;;;9.85;3.08;;;10.20;99.90;;;;;;5077150;28;20051;-64
2023/10/31 03:03:16;;;;;;;9.50;2.78;;;10.40;99.90;;;;;;5094358;28;20047;-63
2023/10/31 03:05:42;;;;;;;10.75;3.30;;;10.40;99.90;;;;;;5094151;28;20108;-63
2023/10/31 03:08:10;;;;;;;9.40;3.38;;;10.20;99.90;;;;;;5094609;28;20044;-63
2023/10/31 03:10:38;;;;;;;9.32;3.38;;;10.20;99.90;;;;;;5084131;28;20044;-63
2023/10/31 03:13:04;;;;;;;6.90;3.30;;;10.30;99.90;;;;;;5074319;28;20056;-63
2023/10/31 03:15:31;;;;;;;9.77;3.20;;;10.20;99.90;;;;;;5073648;28;20490;-62
2023/10/31 03:17:57;;;;;;;7.43;2.58;;;10.50;99.90;;;;;;5073705;28;20052;-63
2023/10/31 03:20:23;;;;;;;9.10;2.60;;;10.40;99.90;;;;;;5064975;28;20044;-63
2023/10/31 03:22:50;;;;;;;10.55;3.30;;;10.30;99.90;;;;;;5093813;28;20532;-63
2023/10/31 03:25:16;;;;;;;5.72;2.05;;;10.30;99.90;;;;;;5093876;28;20059;-62
2023/10/31 03:27:42;;;;;;;8.95;2.22;;;10.40;99.90;;;;;;5094288;28;20367;-63
2023/10/31 03:30:09;;;;;;;6.55;2.67;;;10.30;99.90;;;;;;5087789;28;20040;-63
2023/10/31 03:32:35;;;;;;;6.40;2.13;;;10.20;99.90;;;;;;5056917;28;20044;-63
2023/10/31 03:35:01;;;;;;;7.00;2.03;;;10.20;99.90;;;;;;5091332;28;20036;-62
2023/10/31 03:37:28;;;;;;;6.93;2.10;;;10.30;99.90;;;;;;5073306;28;20048;-62
2023/10/31 03:39:54;;;;;;;7.90;2.58;;;10.20;99.90;;;;;;5077186;28;20047;-62
2023/10/31 03:42:20;;;;;;;6.70;2.10;;;10.20;99.90;;;;;;5093530;28;20346;-62
2023/10/31 03:44:46;;;;;;;5.10;2.00;;;10.40;99.90;;;;;;5093236;28;20063;-62
2023/10/31 03:47:13;;;;;;;8.65;2.10;;;10.40;99.90;;;;;;5093540;28;20039;-62
2023/10/31 03:49:40;;;;;;;6.15;2.40;;;10.20;99.90;;;;;;5091709;28;20047;-63
2023/10/31 03:52:07;;;;;;;7.57;2.28;;;10.20;99.90;;;;;;5056243;28;20056;-62
2023/10/31 03:54:33;;;;;;;6.20;2.70;;;10.40;99.90;;;;;;5073323;28;20460;-62
2023/10/31 03:56:59;;;;;;;8.10;2.40;;;10.20;99.90;;;;;;5072910;28;20051;-62
2023/10/31 03:59:25;;;;;;;6.07;2.50;;;10.40;99.90;;;;;;5072424;28;20551;-63
2023/10/31 04:01:52;;;;;;;8.48;3.25;;;10.20;99.90;;;;;;5092703;28;20513;-62
2023/10/31 04:04:18;;;;;;;7.65;2.30;;;10.30;99.90;;;;;;5076453;28;20348;-62
2023/10/31 04:06:44;;;;;;;7.60;2.70;;;10.40;99.90;;;;;;5092358;28;20063;-63
2023/10/31 04:09:11;;;;;;;11.15;3.13;;;10.40;99.90;;;;;;5093312;28;20056;-62
2023/10/31 04:11:38;;;;;;;7.15;2.78;;;10.20;99.90;;;;;;5074893;28;20052;-62
2023/10/31 04:14:05;;;;;;;7.60;2.20;;;10.20;99.90;;;;;;5072900;28;20050;-62
2023/10/31 04:16:32;;;;;;;7.85;2.25;;;10.20;99.90;;;;;;5055676;28;20070;-62
2023/10/31 04:18:58;;;;;;;7.60;2.30;;;10.40;99.90;;;;;;5072868;28;20063;-62
2023/10/31 04:21:24;;;;;;;6.10;2.10;;;10.20;99.90;;;;;;5088479;28;20047;-62
2023/10/31 04:23:51;;;;;;;6.00;2.40;;;10.30;99.90;;;;;;5093066;28;20056;-62
2023/10/31 04:26:17;;;;;;;7.22;2.42;;;10.20;99.90;;;;;;5092316;28;20044;-62
2023/10/31 04:28:43;;;;;;;6.68;2.05;;;10.40;99.90;;;;;;5092752;28;20051;-62
2023/10/31 04:31:09;;;;;;;9.88;2.53;;;10.30;99.90;;;;;;5061729;28;20368;-62
2023/10/31 04:33:36;;;;;;;9.35;2.88;;;10.30;99.90;;;;;;5072616;28;20105;-62
2023/10/31 04:36:03;;;;;;;10.43;2.67;;;10.40;99.90;;;;;;5071754;28;20048;-62
2023/10/31 04:38:29;;;;;;;10.93;3.15;;;10.30;99.90;;;;;;5072502;28;20051;-62
2023/10/31 04:40:56;;;;;;;11.98;2.38;;;10.20;99.90;;;;;;5084000;28;20052;-62
2023/10/31 04:43:22;;;;;;;10.85;2.50;;;10.40;99.90;;;;;;5075816;28;20066;-63
2023/10/31 04:45:48;;;;;;;13.80;4.28;;;10.40;99.90;;;;;;5091965;28;20052;-63
2023/10/31 04:48:14;;;;;;;13.90;3.38;;;10.40;99.90;;;;;;5092233;28;20154;-62
2023/10/31 04:50:41;;;;;;;8.25;3.70;;;10.30;99.90;;;;;;5082092;28;20052;-62
2023/10/31 04:53:07;;;;;;;9.40;3.65;;;10.20;99.90;;;;;;5071917;28;20426;-62
2023/10/31 04:55:33;;;;;;;8.43;3.17;;;10.40;99.90;;;;;;5072061;28;20054;-63
2023/10/31 04:58:00;;;;;;;5.38;2.42;;;10.40;99.90;;;;;;5055664;28;20404;-62
2023/10/31 05:00:26;;;;;;;7.90;2.80;;;10.40;99.90;;;;;;5079611;28;20435;-63
2023/10/31 05:02:52;;;;;;;10.45;3.05;;;10.20;99.90;;;;;;5075390;28;20051;-62
2023/10/31 05:05:19;;;;;;;9.35;3.08;;;10.40;99.90;;;;;;5091961;28;20319;-64
2023/10/31 05:07:45;;;;;;;5.15;2.00;;;10.20;99.90;;;;;;5075327;28;20056;-63
2023/10/31 05:10:11;;;;;;;6.20;1.92;;;10.20;99.90;;;;;;5086658;28;20063;-62
2023/10/31 05:12:38;;;;;;;6.35;2.70;;;10.20;99.90;;;;;;5071841;28;20532;-62
2023/10/31 05:15:05;;;;;;;7.30;2.70;;;10.40;99.90;;;;;;5071795;28;20044;-62
2023/10/31 05:17:31;;;;;;;7.60;2.28;;;10.40;99.90;;;;;;5090016;28;20491;-62
2023/10/31 05:19:57;;;;;;;7.82;2.13;;;10.20;99.90;;;;;;5058420;28;20436;-62
2023/10/31 05:22:23;;;;;;;8.13;2.25;;;10.40;99.90;;;;;;5091771;28;20043;-64
2023/10/31 05:24:50;;;;;;;5.95;2.03;;;10.20;99.90;;;;;;5091501;28;20055;-62
2023/10/31 05:27:16;;;;;;;5.57;2.28;;;10.20;99.90;;;;;;5092222;28;20062;-62
2023/10/31 05:29:42;;;;;;;6.65;2.30;;;10.20;99.90;;;;;;5084460;28;20056;-62
2023/10/31 05:32:08;;;;;;;6.53;1.90;;;10.20;99.90;;;;;;5091951;28;20054;-62
2023/10/31 05:34:35;;;;;;;3.80;1.70;;;10.40;99.90;;;;;;5091663;28;20044;-62
2023/10/31 05:37:01;;;;;;;4.93;1.70;;;10.40;99.90;;;;;;5092123;28;20044;-62
2023/10/31 05:39:27;;;;;;;6.57;1.75;;;10.30;99.90;;;;;;5092049;28;20469;-62
2023/10/31 05:41:53;;;;;;;5.30;1.45;;;10.40;99.90;;;;;;5072238;28;20052;-62
2023/10/31 05:44:20;;;;;;;2.83;1.23;;;10.20;99.90;;;;;;5052182;28;20059;-61
2023/10/31 05:46:46;;;;;;;4.93;1.50;;;10.20;99.90;;;;;;5086983;28;20115;-62
2023/10/31 05:49:12;;;;;;;3.22;2.05;;;10.30;99.90;;;;;;5087757;28;20124;-62
2023/10/31 05:51:38;;;;;;;3.60;1.70;;;10.10;99.90;;;;;;5068493;28;20048;-62
2023/10/31 05:54:07;;;;;;;4.70;1.63;;;10.30;99.90;;;;;;5088092;28;20040;-62
2023/10/31 05:56:34;;;;;;;8.18;1.88;;;10.30;99.90;;;;;;5087341;28;20060;-62
2023/10/31 05:59:00;;;;;;;3.83;1.48;;;10.10;99.90;;;;;;5089434;28;20060;-62
2023/10/31 06:01:26;;;;;;;1.80;1.20;;;10.30;99.90;;;;;;5086211;28;20082;-63
2023/10/31 06:03:53;;;;;;;3.67;1.63;;;10.20;99.90;;;;;;5088317;28;20461;-62
2023/10/31 06:06:19;;;;;;;3.85;1.27;;;10.10;99.90;;;;;;5087176;28;20516;-62
2023/10/31 06:08:45;;;;;;;3.05;1.25;;;10.30;99.90;;;;;;5088247;28;20067;-62
2023/10/31 06:11:12;;;;;;;4.28;1.23;;;10.20;99.90;;;;;;5087407;28;20062;-63
2023/10/31 06:13:38;;;;;;;2.10;1.30;;;10.30;99.90;;;;;;5071692;28;20055;-62
2023/10/31 06:16:05;;;;;;;4.15;1.42;;;10.30;99.90;;;;;;5087473;28;20052;-62
2023/10/31 06:18:31;;;;;;;2.67;1.52;;;10.10;99.90;;;;;;5088167;28;20059;-62
2023/10/31 06:20:57;;;;;;;4.20;1.50;;;10.30;99.90;;;;;;5081724;28;20036;-62
2023/10/31 06:23:23;;;;;;;4.60;1.40;;;10.30;99.90;;;;;;5075018;28;20080;-62
2023/10/31 06:25:49;;;;;;;2.17;1.33;;;10.30;99.90;;;;;;5074222;28;20113;-64
2023/10/31 06:28:16;;;;;;;4.63;1.40;;;10.20;99.90;;;;;;5092014;28;20056;-63
2023/10/31 06:30:42;;;;;;;3.03;1.52;;;10.20;99.90;;;;;;5082119;28;20385;-63
2023/10/31 06:33:10;;;;;;;5.32;1.63;;;10.40;99.90;;;;;;5070776;28;20113;-63
2023/10/31 06:35:36;;;;;;;3.60;1.73;;;10.20;99.90;;;;;;5070169;28;20442;-62
2023/10/31 06:38:02;;;;;;;4.45;1.83;;;10.20;99.90;;;;;;5071538;28;20055;-63
2023/10/31 06:40:29;;;;;;;2.80;1.48;;;10.40;99.90;;;;;;5061696;28;20044;-63
2023/10/31 06:42:55;;;;;;;2.40;1.50;;;10.50;99.90;;;;;;5074918;28;20060;-64
2023/10/31 06:45:21;;;;;;;4.05;1.80;;;10.40;99.90;;;;;;5102767;28;20112;-63
2023/10/31 06:47:47;;;;;;;3.03;1.55;;;10.20;99.90;;;;;;5094690;28;20051;-63
2023/10/31 06:50:15;;;;;;;3.67;1.40;;;10.30;99.90;;;;;;5099692;27;20058;-63
2023/10/31 06:52:41;;;;;;;4.05;1.60;;;10.30;99.90;;;;;;5097901;27;20054;-63
2023/10/31 06:55:08;;;;;;;5.18;1.70;;;10.40;99.90;;;;;;5114556;27;20042;-64
2023/10/31 06:57:34;;;;;;;5.43;1.70;;;10.40;99.90;;;;;;5114867;27;20043;-63
2023/10/31 07:00:00;;;;;;;4.22;2.15;;;10.30;99.90;;;;;;5111884;27;20062;-63
2023/10/31 07:02:27;;;;;;;5.30;1.80;;;10.60;99.90;;;;;;5094526;28;20056;-63
2023/10/31 07:04:53;;;;;;;3.28;1.52;;;10.40;99.90;;;;;;5093918;28;20044;-63
2023/10/31 07:07:19;;;;;;;4.22;1.55;;;10.30;99.90;;;;;;5094188;28;20047;-64
2023/10/31 07:09:46;;;;;;;4.55;1.73;;;10.30;99.90;;;;;;5095498;27;20051;-64
2023/10/31 07:12:12;;;;;;;3.63;1.52;;;10.50;99.90;;;;;;5114616;27;20096;-64
2023/10/31 07:14:38;;;;;;;6.15;1.77;;;10.60;99.90;;;;;;5114400;27;20051;-63
2023/10/31 07:17:04;;;;;;;4.70;1.98;;;10.50;99.90;;;;;;5114861;27;20051;-63
2023/10/31 07:19:31;;;;;;;6.18;1.92;;;10.50;99.90;;;;;;5114803;27;20065;-63
2023/10/31 07:21:57;;;;;;;5.28;2.03;;;10.40;99.90;;;;;;5094892;28;20050;-63
2023/10/31 07:24:24;;;;;;;5.25;2.00;;;10.40;99.90;;;;;;5093999;28;20470;-63
2023/10/31 07:26:50;;;;;;;3.55;1.98;;;10.60;99.90;;;;;;5094465;28;20059;-63
2023/10/31 07:29:16;;;;;;;13.25;2.92;;;10.40;99.90;;;;;;5112002;28;20059;-62
2023/10/31 07:31:43;;;;;;;9.02;3.80;;;10.50;99.90;;;;;;5110865;27;20135;-63
2023/10/31 07:34:11;;;;;;;16.70;3.53;;;10.50;99.90;;;;;;5113139;27;20047;-62
2023/10/31 07:36:39;;;;;;;8.73;3.17;;;10.50;99.90;;;;;;5114260;27;20054;-63
2023/10/31 07:39:05;;;;;;;7.95;3.75;;;10.80;99.90;;;;;;5114716;27;20085;-63
2023/10/31 07:41:31;;;;;;;8.07;3.33;;;10.70;99.90;;;;;;5082380;28;20047;-63
2023/10/31 07:43:57;;;;;;;12.77;4.10;;;10.60;99.90;;;;;;5094015;28;20073;-63
2023/10/31 07:46:24;;;;;;;9.68;4.22;;;10.50;99.90;;;;;;5093275;28;20050;-63
2023/10/31 07:48:50;;;;;;;8.30;2.80;;;10.80;99.90;;;;;;5111537;28;20062;-62
2023/10/31 07:51:16;;;;;;;6.45;2.53;;;10.60;99.90;;;;;;5089495;27;20057;-63
2023/10/31 07:53:43;;;;;;;6.82;3.10;;;10.70;99.90;;;;;;5113873;27;20524;-63
2023/10/31 07:56:25;;;;;;;5.93;2.70;;;10.80;99.90;;;;;;5113392;27;20459;-63
2023/10/31 07:58:57;;;;;;;4.22;2.15;;;10.90;99.90;;;;;;5114295;27;20083;-63
2023/10/31 08:01:33;;;;;;;4.25;1.75;;;11.10;99.90;;;;;;5082349;28;20040;-64
2023/10/31 08:04:00;;;;;;;6.82;2.20;;;11.20;99.90;;;;;;5093704;28;20063;-63
2023/10/31 08:06:29;;;;;;;5.63;2.10;;;11.00;99.90;;;;;;5092684;28;20052;-63
2023/10/31 08:08:59;;;;;;;5.55;2.20;;;11.30;99.90;;;;;;5077167;28;20500;-63
2023/10/31 08:11:25;;;;;;;9.45;3.00;;;11.20;99.90;;;;;;5107205;27;20047;-64
2023/10/31 08:13:53;;;;;;;5.68;2.10;;;11.40;99.90;;;;;;5113664;27;20059;-64
2023/10/31 08:16:20;;;;;;;6.60;2.15;;;11.20;99.90;;;;;;5113371;27;20111;-64
2023/10/31 08:18:46;;;;;;;7.78;2.05;;;11.30;99.90;;;;;;5096518;27;20043;-64
2023/10/31 08:21:13;;;;;;;8.32;2.20;;;11.50;99.90;;;;;;5083876;28;20366;-64
2023/10/31 08:23:39;;;;;;;5.82;2.15;;;11.30;99.90;;;;;;5093540;28;20371;-64
2023/10/31 08:26:05;;;;;;;12.45;3.72;;;11.40;99.90;;;;;;5092898;28;20069;-64
2023/10/31 08:28:31;;;;;;;11.73;3.17;;;11.60;99.90;;;;;;5076010;28;20048;-64
2023/10/31 08:30:58;;;;;;;7.95;2.33;;;11.60;99.90;;;;;;5103078;27;20054;-64
2023/10/31 08:33:24;;;;;;;7.50;2.30;;;11.70;99.90;;;;;;5112913;27;20099;-64
2023/10/31 08:35:50;;;;;;;7.13;1.98;;;11.60;99.90;;;;;;5112794;27;20047;-64
2023/10/31 08:38:17;;;;;;;6.85;2.75;;;11.50;99.90;;;;;;5113034;27;20040;-64
2023/10/31 08:40:44;;;;;;;7.22;2.10;;;11.50;99.90;;;;;;5104763;28;20047;-64
2023/10/31 08:43:10;;;;;;;8.38;2.75;;;11.50;99.90;;;;;;5092595;28;20058;-64
2023/10/31 08:45:37;;;;;;;8.77;2.78;;;11.70;99.90;;;;;;5091715;28;20051;-64
2023/10/31 08:48:03;;;;;;;12.70;4.25;;;11.60;99.90;;;;;;5092503;28;20069;-64
2023/10/31 08:50:29;;;;;;;11.40;3.40;;;11.70;99.90;;;;;;5086073;28;20342;-65
2023/10/31 08:52:56;;;;;;;9.88;3.10;;;11.70;99.90;;;;;;5072002;28;20056;-65
2023/10/31 08:55:22;;;;;;;13.85;3.72;;;11.70;99.90;;;;;;5071747;28;20055;-64
2023/10/31 08:57:49;;;;;;;9.63;3.30;;;11.70;99.90;;;;;;5072098;28;20454;-63
2023/10/31 09:00:15;;;;;;;8.90;3.10;;;11.90;99.90;;;;;;5075882;28;20042;-63
2023/10/31 09:02:42;;;;;;;10.55;4.10;;;11.80;99.90;;;;;;5092863;28;20380;-64
2023/10/31 09:05:09;;;;;;;9.35;2.20;;;12.00;99.90;;;;;;5091949;28;20065;-63
2023/10/31 09:07:35;;;;;;;6.60;1.90;;;11.90;99.90;;;;;;5092188;28;20055;-63
2023/10/31 09:10:01;;;;;;;5.53;1.52;;;12.00;99.90;;;;;;5090268;28;20108;-64
2023/10/31 09:12:27;;;;;;;5.20;1.23;;;12.10;99.90;;;;;;5071827;28;20040;-63
2023/10/31 09:14:54;;;;;;;4.50;1.48;;;12.10;99.90;;;;;;5071792;28;20059;-64
2023/10/31 09:17:20;;;;;;;5.00;1.13;;;12.10;99.90;;;;;;5071728;28;20044;-63
2023/10/31 09:19:46;;;;;;;4.53;1.20;;;12.20;99.90;;;;;;5072242;28;20044;-63
2023/10/31 09:22:13;;;;;;;5.10;1.35;;;12.30;99.90;;;;;;5091823;28;20044;-64
2023/10/31 09:24:40;;;;;;;7.10;1.70;;;12.30;99.90;;;;;;5091936;28;20355;-63
2023/10/31 09:27:06;;;;;;;4.28;1.23;;;12.30;99.90;;;;;;5075066;28;20052;-64
2023/10/31 09:29:32;;;;;;;2.95;0.80;;;12.30;99.90;;;;;;5092296;28;20131;-63
2023/10/31 09:31:59;;;;;;;4.32;1.30;;;12.30;99.90;;;;;;5073353;28;20040;-63
2023/10/31 09:34:25;;;;;;;3.67;1.23;;;12.40;99.90;;;;;;5071541;28;20106;-64
2023/10/31 09:36:52;;;;;;;4.00;1.10;;;12.40;99.90;;;;;;5071835;28;20304;-64
2023/10/31 09:39:18;;;;;;;4.05;1.30;;;12.50;99.90;;;;;;5071971;28;20048;-64
2023/10/31 09:41:44;;;;;;;3.33;1.40;;;12.50;99.90;;;;;;5087520;28;20073;-64
2023/10/31 09:44:10;;;;;;;3.03;1.10;;;12.50;99.90;;;;;;5091456;28;20452;-64
2023/10/31 09:46:37;;;;;;;3.10;1.20;;;12.60;99.90;;;;;;5091808;28;20048;-64
2023/10/31 09:49:04;;;;;;;5.80;1.30;;;12.60;99.90;;;;;;5092130;28;20055;-64
2023/10/31 09:51:31;;;;;;;5.40;1.58;;;12.70;99.90;;;;;;5105866;28;20047;-64
2023/10/31 09:53:59;;;;;;;3.60;1.20;;;12.60;99.90;;;;;;5111577;28;20043;-64
2023/10/31 09:56:26;;;;;;;3.65;1.30;;;12.70;99.90;;;;;;5113036;27;20050;-64
2023/10/31 09:58:53;;;;;;;3.13;1.10;;;12.70;99.90;;;;;;5116346;27;20383;-64
2023/10/31 10:01:19;;;;;;;4.60;1.10;;;12.80;99.90;;;;;;5103462;28;20094;-64
2023/10/31 10:03:45;;;;;;;3.67;0.75;;;12.80;99.90;;;;;;5095918;28;20128;-64
2023/10/31 10:06:13;;;;;;;1.73;0.93;;;12.90;99.90;;;;;;5094901;28;20047;-63
2023/10/31 10:08:39;;;;;;;3.42;0.80;;;12.90;99.90;;;;;;5095460;28;20047;-63
2023/10/31 10:11:06;;;;;;;3.67;0.85;;;13.00;99.90;;;;;;5105870;27;20047;-64
2023/10/31 10:13:32;;;;;;;3.88;1.05;;;13.00;99.90;;;;;;5098788;27;20039;-64
2023/10/31 10:15:59;;;;;;;2.95;0.82;;;13.00;99.90;;;;;;5115250;27;20047;-63
2023/10/31 10:18:27;;;;;;;2.75;1.05;;;13.10;99.90;;;;;;5115727;27;20515;-64
2023/10/31 10:21:04;;;;;;;3.15;1.00;;;13.30;99.90;;;;;;5106552;28;20077;-63
2023/10/31 10:23:30;;;;;;;3.97;1.10;;;13.30;99.90;;;;;;5095589;28;20470;-64
2023/10/31 10:25:58;;;;;;;3.15;0.90;;;13.40;99.90;;;;;;5094986;28;20120;-64
2023/10/31 10:28:25;;;;;;;3.83;0.70;;;13.50;99.90;;;;;;5078357;28;20059;-64
2023/10/31 10:30:53;;;;;;;3.65;0.88;;;13.50;99.90;;;;;;5103393;27;20378;-64
2023/10/31 10:33:21;;;;;;;2.08;0.80;;;13.50;99.90;;;;;;5115664;27;20345;-64
2023/10/31 10:35:48;;;;;;;2.80;0.75;;;13.60;99.90;;;;;;5115017;27;20132;-63
2023/10/31 10:38:19;;;;;;;1.30;0.80;;;13.60;99.90;;;;;;5115601;27;20515;-63
2023/10/31 10:40:49;;;;;;;2.47;0.82;;;13.70;99.90;;;;;;5107547;28;20040;-64
2023/10/31 10:43:23;;;;;;;1.70;0.80;;;13.70;99.90;;;;;;5095157;28;20532;-63
2023/10/31 10:45:58;;;;;;;1.85;0.77;;;13.80;99.90;;;;;;5094251;28;20051;-64
2023/10/31 10:48:25;;;;;;;3.53;1.00;;;13.90;99.90;;;;;;5077900;28;20047;-63
2023/10/31 10:50:59;;;;;;;1.42;0.80;;;13.80;99.90;;;;;;5086237;28;20048;-63
2023/10/31 10:53:30;;;;;;;2.58;1.10;;;13.80;99.90;;;;;;5074178;28;20161;-64
2023/10/31 10:56:03;;;;;;;3.70;1.08;;;13.70;99.90;;;;;;5073841;28;20490;-63
2023/10/31 10:58:50;;;;;;;1.75;0.93;;;13.70;99.90;;;;;;5074094;28;20044;-64
2023/10/31 11:01:18;;;;;;;2.53;1.33;;;13.50;99.90;;;;;;5085670;28;20055;-63
2023/10/31 11:03:46;;;;;;;2.65;0.93;;;13.40;99.90;;;;;;5094435;28;20047;-63
2023/10/31 11:06:13;;;;;;;3.03;1.10;;;13.30;99.90;;;;;;5094221;28;20043;-64
2023/10/31 11:08:41;;;;;;;1.20;0.82;;;13.20;99.90;;;;;;5094537;28;20382;-64
2023/10/31 11:11:07;;;;;;;2.67;0.80;;;13.10;99.90;;;;;;5067325;28;20055;-63
2023/10/31 11:13:35;;;;;;;3.25;1.00;;;13.00;99.90;;;;;;5074098;28;20055;-63
2023/10/31 11:16:09;;;;;;;3.00;0.82;;;12.90;99.90;;;;;;5073959;28;20056;-64
2023/10/31 11:18:35;;;;;;;4.30;0.80;;;12.90;99.90;;;;;;5074145;28;20066;-63
2023/10/31 11:21:02;;;;;;;1.77;0.70;;;12.80;99.90;;;;;;5083373;28;20145;-63
2023/10/31 11:23:28;;;;;;;3.15;1.23;;;12.80;99.90;;;;;;5094127;28;20048;-63
2023/10/31 11:25:55;;;;;;;2.45;0.95;;;12.70;99.90;;;;;;5111643;28;20410;-63
2023/10/31 11:28:21;;;;;;;1.52;0.68;;;12.70;99.90;;;;;;5093891;28;20058;-63
2023/10/31 11:30:49;;;;;;;6.25;1.30;;;12.70;99.90;;;;;;5086499;28;20475;-63
2023/10/31 11:33:19;;;;;;;3.55;0.95;;;12.80;99.90;;;;;;5073433;28;20457;-64
2023/10/31 11:35:50;;;;;;;2.08;0.77;;;12.80;99.90;;;;;;5073156;28;20050;-63
2023/10/31 11:38:27;;;;;;;3.22;1.10;;;12.70;99.90;;;;;;5073514;28;20051;-63
2023/10/31 11:40:53;;;;;;;3.65;1.00;;;12.70;99.90;;;;;;5081583;28;20039;-64
2023/10/31 11:43:20;;;;;;;3.17;1.13;;;12.70;99.90;;;;;;5076889;28;20052;-63
2023/10/31 11:45:48;;;;;;;1.67;0.93;;;12.70;99.90;;;;;;5093185;28;20055;-63
2023/10/31 11:48:15;;;;;;;2.28;1.20;;;12.70;99.90;;;;;;5093891;28;20351;-63
2023/10/31 11:50:42;;;;;;;1.83;1.15;;;12.70;99.90;;;;;;5087087;28;20515;-63
2023/10/31 11:53:13;;;;;;;2.83;1.17;;;12.60;99.90;;;;;;5073070;28;20044;-63
2023/10/31 11:55:42;;;;;;;2.75;1.10;;;12.60;99.90;;;;;;5072823;28;20055;-63
2023/10/31 11:58:19;;;;;;;3.33;0.95;;;12.70;99.90;;;;;;5056476;28;20043;-63
2023/10/31 12:00:49;;;;;;;3.35;1.02;;;12.70;99.90;;;;;;5079884;28;20568;-63
2023/10/31 12:03:17;;;;;;;1.88;0.80;;;12.80;99.90;;;;;;5076478;28;20059;-63
2023/10/31 12:05:54;;;;;;;3.25;0.88;;;12.80;99.90;;;;;;5093325;28;20055;-64
2023/10/31 12:08:32;;;;;;;2.25;0.70;;;12.90;99.90;;;;;;5093324;28;20052;-64
2023/10/31 12:11:20;;;;;;;2.03;0.85;;;12.90;99.90;;;;;;5084499;28;20424;-64
2023/10/31 12:14:01;;;;;;;4.60;1.60;;;13.00;99.90;;;;;;5072221;28;20052;-63
2023/10/31 12:16:32;;;;;;;2.28;1.20;;;13.10;99.90;;;;;;5072653;28;20051;-64
2023/10/31 12:19:00;;;;;;;3.80;1.42;;;13.20;99.90;;;;;;5072465;28;20407;-64
2023/10/31 12:21:46;;;;;;;1.40;0.90;;;13.20;99.90;;;;;;5084963;28;20059;-64
2023/10/31 12:24:18;;;;;;;2.45;0.90;;;13.20;99.90;;;;;;5076306;28;20043;-64
2023/10/31 12:26:45;;;;;;;3.65;1.10;;;13.20;99.90;;;;;;5092883;28;20545;-64
2023/10/31 12:29:18;;;;;;;1.88;0.95;;;13.10;99.90;;;;;;5093003;28;20106;-64
2023/10/31 12:31:47;;;;;;;2.80;1.00;;;13.00;99.90;;;;;;5061245;28;20058;-64
2023/10/31 12:34:15;;;;;;;0.47;0.47;;;12.90;99.90;;;;;;5071964;28;20047;-64
2023/10/31 12:36:42;;;;;;;2.10;0.93;;;12.90;99.90;;;;;;5072202;28;20105;-65
2023/10/31 12:39:11;;;;;;;1.67;0.70;;;12.80;99.90;;;;;;5072521;28;20051;-64
2023/10/31 12:41:39;;;;;;;2.17;0.93;;;12.70;99.90;;;;;;5085829;28;20047;-64
2023/10/31 12:44:07;;;;;;;3.35;1.05;;;12.70;99.90;;;;;;5092220;28;20370;-64
2023/10/31 12:46:35;;;;;;;1.48;0.47;;;12.60;99.90;;;;;;5092734;28;20054;-64